Date,TemperatureHighF,TemperatureAvgF,TemperatureLowF,DewpointHighF,DewpointAvgF,DewpointLowF,HumidityHigh,HumidityAvg,HumidityLow,PressureMaxIn,PressureMinIn,WindSpeedMaxMPH,WindSpeedAvgMPH,GustSpeedMaxMPH,PrecipitationSumIn
2012-2-14,57.8,48.3,37.3,41.4,37.1,34.2,93,67,41,30.05,29.79,6,1,1,0.09
2012-2-15,63.1,47.8,31.4,37.3,30.2,23.7,95,57,23,30.13,29.92,3,1,4,0.01
2012-2-16,65.5,50.0,41.7,38.4,31.4,24.1,80,52,21,30.00,29.89,3,1,7,0.00
2012-2-17,53.2,46.9,38.4,44.9,40.3,35.7,90,78,66,30.14,29.96,2,0,2,0.01
2012-2-18,65.9,47.7,33.0,43.8,32.7,21.1,97,63,18,30.19,30.01,3,0,4,0.00
2012-2-19,65.9,50.8,34.9,35.4,30.9,25.7,79,51,22,30.02,29.81,7,2,9,0.00
2012-2-20,67.1,50.6,34.7,38.4,29.7,21.4,89,50,19,30.10,29.99,3,1,3,0.00
2012-2-21,74.0,55.6,32.8,29.8,22.3,12.5,72,34,10,30.14,30.03,2,1,3,0.00
2012-2-22,76.6,55.4,35.6,26.5,21.8,9.4,64,34,8,30.14,29.91,3,1,5,0.00
2012-2-23,77.6,56.2,37.2,24.5,21.0,10.2,56,30,8,29.94,29.75,5,1,9,0.00
2012-2-24,78.4,60.1,39.5,30.6,26.4,21.7,59,32,13,30.06,29.90,3,1,4,0.00
2012-2-25,79.1,58.6,39.7,31.3,25.2,15.3,62,32,9,30.07,29.86,4,1,3,0.00
2012-2-26,76.6,58.7,39.0,29.0,25.1,22.0,56,31,14,29.93,29.78,4,1,5,0.00
2012-2-27,77.0,62.2,45.2,42.0,31.4,25.6,58,34,16,29.91,29.71,7,3,12,0.00
2012-2-28,60.9,51.1,38.7,39.0,29.4,23.6,62,45,25,30.17,29.86,5,2,6,0.00
2012-2-29,70.0,48.9,30.9,31.7,22.4,9.1,80,43,10,30.22,30.06,3,1,5,0.00
2012-3-1,71.0,53.2,34.3,26.8,20.1,8.0,65,33,9,30.11,29.86,6,1,8,0.00
2012-3-2,63.2,47.6,35.1,30.9,15.2,-7.5,64,33,6,30.20,29.91,6,1,7,0.00
2012-3-3,69.3,49.5,28.8,13.3,6.4,-3.2,39,21,6,30.32,30.19,5,1,5,0.00
2012-3-4,81.7,55.3,33.5,20.4,15.2,10.1,44,24,7,30.24,29.99,3,1,5,0.00
2012-3-5,87.7,60.9,37.8,24.3,17.0,1.9,48,24,4,30.07,29.91,3,1,5,0.00
2012-3-6,82.1,63.9,40.5,23.6,13.6,-2.1,43,18,4,29.94,29.63,6,2,7,0.00
2012-3-7,62.8,55.5,40.0,26.2,15.9,3.6,29,21,13,29.99,29.63,8,3,12,0.00
2012-3-8,66.7,49.7,28.7,21.0,14.4,8.2,46,26,13,30.29,30.00,5,1,11,0.00
2012-3-9,63.4,54.5,48.0,22.4,19.6,17.4,32,26,17,30.27,30.03,8,4,13,0.00
2012-3-10,65.8,52.8,41.9,29.5,26.1,22.3,51,37,22,30.04,29.96,8,2,7,0.00
2012-3-11,74.2,53.7,34.0,28.5,21.5,15.4,65,34,11,30.07,29.93,3,0,7,0.00
2012-3-12,81.2,63.6,37.8,21.3,2.6,-29.8,42,14,1,30.04,29.89,3,1,5,0.00
2012-3-13,83.4,59.0,36.3,14.7,3.8,-15.3,35,15,2,30.00,29.86,3,1,5,0.00
2012-3-14,82.7,59.7,38.5,14.7,4.7,-15.9,33,15,2,30.04,29.93,3,1,6,0.00
2012-3-15,85.4,60.0,39.9,18.6,8.1,-27.4,35,18,1,30.06,29.89,3,1,6,0.00
2012-3-16,85.6,64.8,40.8,19.0,8.5,-27.0,37,15,1,29.95,29.77,7,1,9,0.00
2012-3-17,81.7,67.3,44.7,32.0,19.1,11.0,32,18,7,29.82,29.62,7,2,14,0.00
2012-3-18,62.2,49.6,40.3,45.0,36.0,29.0,92,63,33,29.91,29.56,10,2,16,0.28
2012-3-19,50.1,42.3,35.8,38.0,32.7,26.0,86,70,43,30.04,29.84,8,2,14,0.04
2012-3-20,60.4,45.2,29.0,37.0,30.5,24.0,95,62,25,30.16,30.03,6,1,10,0.00
2012-3-21,72.6,53.4,33.2,37.0,31.2,26.0,87,50,18,30.14,29.91,5,1,9,0.00
2012-3-22,81.9,62.9,39.1,40.0,32.0,20.0,85,40,10,29.96,29.81,4,1,7,0.00
2012-3-23,83.7,67.5,48.3,40.0,32.0,25.0,62,31,13,29.99,29.85,6,1,10,0.00
2012-3-24,87.9,67.7,45.0,36.0,26.7,11.0,67,30,6,29.95,29.79,4,1,7,0.00
2012-3-25,85.6,66.4,47.6,37.0,25.4,7.0,57,27,5,29.86,29.76,6,1,10,0.00
2012-3-26,77.3,62.4,46.9,44.0,36.6,28.0,70,42,17,30.08,29.86,8,1,10,0.00
2012-3-27,84.5,60.3,41.5,39.0,31.0,10.0,77,41,6,30.06,29.93,4,0,8,0.00
2012-3-28,86.1,63.6,44.1,33.0,27.2,7.0,61,31,5,30.05,29.90,6,1,8,0.00
2012-3-29,85.3,64.6,45.6,32.0,21.0,1.0,52,25,4,30.03,29.91,6,1,10,0.00
2012-3-30,86.9,67.4,45.6,29.0,23.2,18.0,48,23,8,30.03,29.92,5,1,9,0.00
2012-3-31,90.1,72.2,49.8,34.0,24.7,13.0,47,21,6,30.02,29.86,5,1,9,0.00
2012-4-1,75.6,64.2,48.9,36.0,26.6,15.0,42,25,14,29.92,29.75,11,2,18,0.00
2012-4-2,64.7,54.2,38.4,21.0,14.6,2.0,47,23,8,29.93,29.83,9,2,17,0.00
2012-4-3,75.9,57.5,36.5,19.0,14.3,9.0,42,21,9,30.02,29.89,7,1,12,0.00
2012-4-4,82.0,61.6,40.3,25.0,17.0,8.0,44,21,6,30.02,29.88,4,1,6,0.00
2012-4-5,87.9,69.7,47.2,28.0,15.0,4.0,36,16,4,29.94,29.81,9,2,10,0.00
2012-4-6,83.7,65.6,48.9,28.0,20.5,9.0,39,21,7,30.06,29.94,8,1,10,0.00
2012-4-7,89.0,69.4,46.2,26.0,17.2,9.0,37,17,5,30.09,29.98,5,1,9,0.00
2012-4-8,92.7,71.5,48.4,24.0,20.0,16.0,35,17,6,30.12,29.98,4,1,11,0.00
2012-4-9,93.3,73.1,53.0,26.0,20.2,11.0,32,17,5,30.07,29.91,5,1,11,0.00
2012-4-10,90.9,70.7,50.5,29.0,20.6,4.0,35,18,4,29.99,29.85,5,1,12,0.00
2012-4-11,80.1,67.3,55.0,43.0,35.7,28.0,48,32,18,30.03,29.90,7,2,16,0.00
2012-4-12,71.8,57.6,44.1,41.0,33.3,25.0,72,43,20,30.11,29.99,6,1,9,0.00
2012-4-13,79.1,62.7,41.0,29.0,18.0,1.0,54,24,7,29.99,29.74,10,2,14,0.00
2012-4-14,62.0,52.3,41.7,43.0,28.6,9.0,88,46,12,30.02,29.78,14,3,20,0.06
2012-4-15,68.5,52.5,35.4,37.0,32.1,31.0,86,50,26,30.14,30.02,4,1,11,0.00
2012-4-16,81.7,62.2,39.5,37.0,29.5,16.0,77,37,9,30.18,30.05,6,1,9,0.00
2012-4-17,90.5,70.9,45.3,32.0,20.7,5.0,54,22,4,30.10,29.93,8,1,9,0.00
2012-4-18,93.2,73.3,49.5,30.0,17.9,0.0,41,17,3,30.04,29.90,5,1,21,0.00
2012-4-19,89.8,74.2,51.0,31.0,19.0,3.0,35,15,4,30.02,29.89,7,2,15,0.00
2012-4-20,95.6,76.9,53.7,33.0,28.5,23.0,36,19,9,30.05,29.92,7,1,15,0.00
2012-4-21,99.1,79.6,56.1,35.0,28.2,16.0,41,19,5,30.02,29.88,6,1,10,0.00
2012-4-22,102.0,83.1,57.9,36.0,19.7,-17.0,36,14,1,30.02,29.87,5,1,10,0.00
2012-4-23,99.6,82.8,64.3,40.0,30.4,21.0,33,17,7,30.02,29.88,5,1,11,0.00
2012-4-24,95.4,79.0,59.4,45.0,36.3,27.0,48,25,11,30.03,29.89,7,1,9,0.00
2012-4-25,95.3,77.7,58.0,36.0,25.6,9.0,31,18,4,30.02,29.89,6,1,10,0.00
2012-4-26,82.5,71.9,55.0,47.0,31.1,23.0,42,23,12,30.01,29.92,8,2,17,0.00
2012-4-27,84.4,67.9,48.4,38.0,32.4,24.0,58,31,11,30.02,29.87,5,1,9,0.00
2012-4-28,89.2,71.7,49.9,37.0,32.6,26.0,55,27,10,29.91,29.74,7,1,11,0.00
2012-4-29,89.5,74.7,56.6,41.0,33.0,24.0,49,25,10,29.94,29.84,7,1,12,0.00
2012-4-30,92.4,76.4,54.9,43.0,35.1,25.0,53,26,9,30.01,29.86,5,1,10,0.00
2012-5-1,91.4,76.6,58.8,41.0,30.4,14.0,45,22,6,29.95,29.79,5,1,10,0.00
2012-5-2,88.6,75.0,55.0,40.0,26.5,12.0,48,21,6,29.95,29.85,6,1,12,0.00
2012-5-3,92.2,76.6,53.9,38.0,24.7,7.0,47,19,4,30.02,29.91,5,1,11,0.00
2012-5-4,93.4,77.6,55.9,33.0,22.3,14.0,33,16,6,30.05,29.93,6,1,11,0.00
2012-5-5,93.7,76.5,53.5,32.0,17.6,-1.0,31,14,3,30.02,29.88,6,1,13,0.00
2012-5-6,92.4,75.9,53.0,29.0,14.8,-1.0,34,13,3,29.98,29.86,5,1,11,0.00
2012-5-7,87.1,72.1,48.5,28.0,8.1,-7.0,25,10,3,29.96,29.83,8,2,13,0.00
2012-5-8,89.2,71.5,49.1,39.0,10.2,-24.0,30,13,1,29.91,29.76,12,3,19,0.00
2012-5-9,81.3,68.5,52.7,49.0,41.3,29.0,65,39,15,30.05,29.84,13,4,23,0.00
2012-5-10,88.7,72.3,51.1,47.0,39.0,30.0,75,35,14,29.95,29.80,10,1,13,0.00
2012-5-11,94.3,79.2,56.9,41.0,27.7,12.0,47,19,5,30.00,29.86,6,1,14,0.00
2012-5-12,95.7,78.4,56.3,30.0,16.9,-6.0,30,12,2,30.07,29.97,6,1,11,0.00
2012-5-13,99.1,81.4,56.6,33.0,16.9,3.0,27,11,3,30.06,29.91,6,1,11,0.00
2012-5-14,99.3,82.5,60.3,31.0,15.4,-5.0,27,11,2,30.02,29.87,9,1,10,0.00
2012-5-15,99.3,88.3,77.4,38.0,27.6,11.0,24,13,4,30.00,29.84,11,3,21,0.00
2012-5-16,102.1,89.3,75.2,33.0,22.2,5.0,18,10,3,29.95,29.81,6,2,17,0.00
2012-5-17,100.7,84.3,62.3,32.0,20.0,-4.0,26,12,2,29.95,29.79,6,2,14,0.00
2012-5-18,95.8,82.2,65.1,39.0,29.1,18.0,31,16,6,29.87,29.73,7,2,17,0.00
2012-5-19,93.5,78.1,58.4,34.0,22.2,6.0,34,15,4,29.94,29.85,6,1,9,0.00
2012-5-20,100.7,81.3,56.3,29.0,12.2,-17.0,28,11,1,29.98,29.88,8,1,10,0.00
2012-5-21,105.9,85.9,59.2,33.0,7.0,-19.0,23,8,1,30.02,29.86,7,1,14,0.00
2012-5-22,103.9,84.0,61.9,29.0,7.5,-17.0,20,8,1,29.99,29.80,8,1,15,0.00
2012-5-23,101.5,84.6,64.1,32.0,18.5,-4.0,19,10,2,29.85,29.66,10,2,18,0.00
2012-5-24,96.9,86.0,74.1,38.0,29.1,21.0,21,13,8,29.74,29.62,6,3,14,0.00
2012-5-25,95.6,82.7,65.6,41.0,31.7,21.0,28,17,7,29.77,29.69,7,2,14,0.00
2012-5-26,82.2,74.5,56.7,43.0,33.4,18.0,32,23,13,29.94,29.78,8,2,16,0.00
2012-5-27,85.4,68.5,47.5,18.0,5.7,-27.0,28,12,1,30.02,29.91,5,1,12,0.00
2012-5-28,93.2,74.8,49.2,18.0,4.6,-23.0,25,10,1,30.00,29.90,5,1,9,0.00
2012-5-29,98.3,79.9,53.0,25.0,6.7,-6.0,22,8,2,30.02,29.90,6,2,13,0.00
2012-5-30,97.2,81.0,56.3,24.0,11.3,-6.0,24,9,2,30.02,29.86,6,1,10,0.00
2012-5-31,102.6,82.4,58.0,25.0,16.6,3.0,24,10,3,29.91,29.76,6,1,11,0.00
2012-6-1,107.8,89.3,63.2,31.0,16.4,6.0,22,9,3,29.90,29.77,8,2,11,0.00
2012-6-2,102.2,86.7,64.5,39.0,24.8,16.0,25,12,5,29.95,29.81,7,1,10,0.00
2012-6-3,100.6,84.9,63.9,37.0,28.5,20.0,27,14,6,29.96,29.87,6,1,10,0.00
2012-6-4,100.0,85.0,62.8,37.0,28.3,21.0,29,15,6,29.99,29.82,8,2,12,0.00
2012-6-5,99.3,85.6,64.8,38.0,30.7,24.0,28,15,7,29.94,29.77,8,2,13,0.00
2012-6-6,102.3,84.9,61.4,39.0,25.8,-4.0,36,16,2,29.86,29.75,6,2,13,0.00
2012-6-7,101.7,84.0,60.2,36.0,18.7,-3.0,33,13,2,29.93,29.83,7,1,13,0.00
2012-6-8,103.5,85.8,61.3,33.0,18.7,-4.0,28,12,2,29.94,29.80,6,1,13,0.00
2012-6-9,102.7,85.7,62.6,36.0,19.2,-2.0,26,11,2,29.87,29.73,14,2,17,0.00
2012-6-10,99.4,85.1,63.4,36.0,28.9,25.0,27,14,7,29.92,29.82,6,2,11,0.00
2012-6-11,101.5,86.1,65.9,41.0,33.3,22.0,35,17,7,30.00,29.89,7,1,9,0.00
2012-6-12,104.1,87.1,62.9,36.0,24.3,-1.0,29,13,2,30.02,29.84,5,1,13,0.00
2012-6-13,104.2,89.0,63.7,38.0,23.4,14.0,26,11,4,29.89,29.75,5,1,11,0.00
2012-6-14,102.0,85.9,64.6,50.0,30.4,13.0,29,15,4,29.92,29.78,7,1,10,0.00
2012-6-15,101.2,86.6,68.1,46.0,32.6,12.0,41,18,4,29.93,29.78,7,1,10,0.00
2012-6-16,102.8,82.4,64.9,61.0,42.9,33.0,49,26,10,30.01,29.88,10,2,17,0.02
2012-6-17,106.0,90.5,65.6,50.0,42.5,33.0,49,22,9,30.01,29.83,8,2,13,0.00
2012-6-18,105.7,91.6,67.6,49.0,34.9,23.0,36,16,7,29.92,29.76,9,3,17,0.00
2012-6-19,102.8,89.9,67.5,35.0,13.1,-7.0,25,8,2,29.85,29.72,8,2,16,0.00
2012-6-20,104.7,87.4,62.7,27.0,10.1,-3.0,17,7,2,29.87,29.78,6,1,14,0.00
2012-6-21,106.8,89.5,64.0,38.0,27.7,17.0,25,13,4,29.97,29.82,5,1,10,0.00
2012-6-22,108.2,92.3,73.4,48.0,43.3,37.0,34,20,9,29.92,29.72,7,2,12,0.00
2012-6-23,106.7,92.5,71.0,43.0,40.3,37.0,31,17,10,29.88,29.73,7,2,14,0.00
2012-6-24,102.7,90.0,78.1,62.0,54.6,46.0,47,31,18,30.01,29.88,8,2,14,0.00
2012-6-25,103.5,90.3,76.6,60.0,55.8,50.0,53,33,17,30.05,29.86,8,1,12,0.00
2012-6-26,105.9,90.7,76.1,60.0,56.3,51.0,52,33,16,29.93,29.79,5,1,10,0.00
2012-6-27,107.6,92.5,77.7,58.0,53.7,49.0,43,28,15,29.99,29.84,8,2,18,0.00
2012-6-28,105.7,92.6,76.9,59.0,55.1,52.0,46,29,19,30.07,29.93,7,2,14,0.00
2012-6-29,106.7,93.2,75.4,58.0,52.4,47.0,46,27,15,30.08,29.88,11,2,15,0.00
2012-6-30,105.5,92.2,74.7,62.0,50.9,40.0,57,28,13,30.02,29.79,9,2,13,0.00
2012-7-1,105.4,92.7,78.5,52.0,45.1,40.0,35,20,12,29.92,29.76,10,2,14,0.00
2012-7-2,104.8,89.8,76.8,60.0,53.9,49.0,43,31,16,29.96,29.79,10,2,16,0.00
2012-7-3,93.7,83.1,70.5,68.0,60.5,56.0,92,49,30,30.01,29.85,8,2,14,0.08
2012-7-4,89.0,74.5,68.5,70.0,67.6,63.0,95,81,42,30.02,29.96,7,1,12,0.23
2012-7-5,95.6,81.5,65.7,69.0,61.1,51.0,97,56,23,30.05,29.91,10,2,14,0.01
2012-7-6,99.3,86.1,70.2,65.0,57.8,50.0,81,43,20,30.06,29.90,8,2,16,0.00
2012-7-7,102.6,89.2,73.5,59.0,49.3,35.0,60,30,10,30.05,29.91,12,3,16,0.00
2012-7-8,104.3,87.1,78.7,63.0,57.7,54.0,51,38,19,30.05,29.95,7,2,16,0.00
2012-7-9,106.0,89.9,73.9,63.0,57.0,52.0,64,36,18,30.03,29.89,8,1,13,0.00
2012-7-10,105.7,92.7,80.5,64.0,57.7,53.0,47,32,19,30.00,29.82,10,2,12,0.00
2012-7-11,103.0,93.3,84.4,63.0,59.2,55.0,46,33,21,30.01,29.83,13,5,18,0.00
2012-7-12,105.4,89.3,75.4,67.0,61.2,51.0,69,43,16,30.00,29.84,10,2,14,0.00
2012-7-13,97.2,83.5,74.8,70.0,64.9,61.0,74,55,33,30.06,29.96,10,2,16,0.00
2012-7-14,95.9,80.1,72.4,71.0,68.7,67.0,92,70,40,30.08,29.98,10,1,18,0.57
2012-7-15,98.5,79.5,69.4,71.0,66.6,61.0,95,69,31,30.05,29.88,8,2,23,0.73
2012-7-16,94.4,82.2,68.1,67.0,64.3,60.0,92,58,34,30.02,29.89,7,1,11,0.00
2012-7-17,96.4,84.6,73.3,67.0,59.3,49.0,76,46,21,30.05,29.91,8,2,13,0.00
2012-7-18,101.1,86.1,66.3,60.0,51.5,44.0,76,35,16,30.04,29.90,10,2,17,0.00
2012-7-19,101.3,85.3,73.3,67.0,55.3,49.0,57,38,19,30.06,29.93,11,2,14,0.03
2012-7-20,102.2,83.5,70.6,71.0,62.8,54.0,94,56,20,30.13,29.92,11,2,13,0.29
2012-7-21,94.7,79.0,70.5,71.0,66.7,58.0,95,69,36,30.06,29.97,9,2,18,0.17
2012-7-22,94.7,77.3,69.5,71.0,68.2,65.0,91,75,39,30.08,30.01,6,1,15,0.21
2012-7-23,98.3,81.1,68.3,71.0,67.1,63.0,94,66,31,30.07,29.96,8,1,15,0.31
2012-7-24,94.5,78.0,69.5,70.0,66.3,63.0,90,70,37,30.07,29.98,9,1,24,0.13
2012-7-25,97.6,83.9,69.3,69.0,60.4,52.0,88,51,22,30.07,29.91,9,2,14,0.00
2012-7-26,97.4,85.0,70.9,66.0,60.0,53.0,77,46,24,30.04,29.91,9,2,15,0.00
2012-7-27,100.2,87.0,74.8,68.0,60.6,52.0,79,45,23,30.04,29.86,13,2,21,0.03
2012-7-28,97.0,79.2,72.4,71.0,68.3,65.0,88,71,36,30.07,29.97,7,2,14,0.06
2012-7-29,96.1,77.2,68.5,73.0,69.1,62.0,97,80,34,30.08,29.96,7,1,12,0.63
2012-7-30,95.2,81.4,69.2,72.0,65.4,57.0,97,64,29,30.12,29.96,5,1,15,0.00
2012-7-31,95.8,82.6,69.2,70.0,63.8,59.0,86,56,30,30.13,30.00,10,2,13,0.04
2012-8-1,97.8,84.8,70.9,69.0,59.6,40.0,87,49,14,30.14,29.99,7,1,10,0.00
2012-8-2,100.6,85.8,69.0,65.0,57.7,52.0,74,42,21,30.07,29.90,4,1,10,0.00
2012-8-3,102.2,88.1,70.0,59.0,53.1,47.0,64,34,16,29.99,29.84,7,1,10,0.00
2012-8-4,103.9,89.1,69.9,63.0,54.7,48.0,67,34,15,30.00,29.89,8,2,10,0.00
2012-8-5,104.3,87.3,74.3,71.0,60.2,55.0,85,44,20,30.12,29.94,10,2,15,0.06
2012-8-6,105.3,86.9,70.2,71.0,64.7,57.0,87,53,21,30.12,29.95,7,2,10,0.02
2012-8-7,105.5,89.8,71.2,68.0,61.8,54.0,81,44,21,30.07,29.88,7,2,14,0.00
2012-8-8,108.0,89.6,73.2,74.0,62.7,58.0,86,44,21,30.04,29.88,10,2,24,0.55
2012-8-9,105.3,89.4,74.5,69.0,59.2,45.0,78,42,14,30.05,29.86,10,2,15,0.00
2012-8-10,106.2,91.0,71.5,65.0,53.8,43.0,67,33,14,30.02,29.80,9,2,15,0.00
2012-8-11,105.0,88.6,75.2,67.0,60.2,54.0,64,41,18,29.95,29.85,7,1,9,0.03
2012-8-12,111.0,90.3,68.9,63.0,53.8,37.0,72,37,8,29.95,29.82,7,1,9,0.00
2012-8-13,111.2,93.5,74.1,67.0,52.6,42.0,61,29,10,29.96,29.82,10,2,15,0.06
2012-8-14,107.0,89.6,74.6,70.0,57.8,51.0,84,39,16,29.97,29.79,13,2,23,0.10
2012-8-15,96.2,84.2,70.4,68.0,64.7,61.0,86,55,32,30.01,29.83,11,2,14,0.00
2012-8-16,90.0,80.9,73.9,69.0,65.1,63.0,80,60,43,30.07,29.94,4,1,8,0.00
2012-8-17,91.5,77.8,70.1,72.0,69.2,66.0,93,76,45,30.09,30.02,9,1,10,0.05
2012-8-18,94.5,82.3,69.7,70.0,67.9,65.0,94,65,40,30.05,29.88,9,2,13,0.00
2012-8-19,101.8,84.7,71.1,72.0,64.9,59.0,93,56,27,30.00,29.83,23,2,23,0.43
2012-8-20,100.9,84.1,72.9,72.0,68.5,61.0,94,64,29,30.02,29.86,9,1,15,0.00
2012-8-21,98.9,82.1,74.0,71.0,69.1,60.0,88,67,30,30.01,29.89,10,1,20,0.17
2012-8-22,90.0,75.9,69.0,72.0,68.7,65.0,93,80,44,30.10,29.92,7,1,13,0.73
2012-8-23,90.2,80.0,72.5,74.0,70.2,66.0,96,74,47,30.02,29.91,11,1,12,0.06
2012-8-24,94.2,81.7,69.1,71.0,66.1,60.0,94,63,33,30.01,29.87,7,1,12,0.00
2012-8-25,96.2,82.9,68.4,66.0,62.6,59.0,85,54,31,29.95,29.83,9,1,12,0.00
2012-8-26,99.6,85.8,68.6,67.0,61.7,57.0,81,48,26,30.00,29.88,7,2,16,0.00
2012-8-27,102.5,88.0,77.2,67.0,60.5,55.0,70,42,22,30.03,29.91,12,2,14,0.00
2012-8-28,101.1,88.8,73.6,62.0,52.0,35.0,66,33,11,30.07,29.91,16,4,18,0.00
2012-8-29,102.1,87.3,67.7,64.0,50.9,39.0,70,33,12,30.02,29.84,7,1,12,0.00
2012-8-30,101.2,84.4,69.8,67.0,62.1,49.0,83,51,19,29.98,29.82,12,2,15,0.00
2012-8-31,98.5,84.5,70.6,65.0,62.2,59.0,76,50,28,30.02,29.90,6,1,11,0.00
2012-9-1,103.8,87.5,70.1,66.0,60.0,52.0,77,44,18,30.02,29.89,7,2,10,0.00
2012-9-2,103.3,84.9,71.0,65.0,60.6,54.0,71,47,22,30.03,29.89,11,1,18,0.00
2012-9-3,98.2,83.6,68.8,65.0,62.4,60.0,75,51,32,30.15,29.95,9,2,19,0.00
2012-9-4,91.6,81.3,73.6,65.0,63.3,61.0,68,55,40,30.16,29.98,9,2,12,0.00
2012-9-5,95.3,83.7,73.8,69.0,65.9,60.0,78,57,37,30.07,29.90,9,2,14,0.00
2012-9-6,95.8,78.9,71.2,71.0,67.9,65.0,92,71,38,30.06,29.92,5,1,14,0.08
2012-9-7,89.5,77.5,69.8,72.0,69.3,68.0,94,77,52,30.09,29.97,9,1,12,0.00
2012-9-8,88.2,79.9,71.9,69.0,62.4,58.0,89,57,39,30.06,29.97,17,6,23,0.00
2012-9-9,89.3,79.2,67.5,65.0,59.9,55.0,88,53,38,30.08,29.99,12,4,18,0.33
2012-9-10,94.7,75.8,68.8,67.0,64.1,60.0,89,69,31,30.10,29.96,5,1,12,0.04
2012-9-11,86.8,73.5,67.9,69.0,63.9,57.0,92,74,37,30.07,29.99,14,1,18,0.10
2012-9-12,88.5,77.0,66.5,69.0,65.0,62.0,96,69,42,30.08,29.96,10,2,12,0.01
2012-9-13,95.7,79.4,62.3,64.0,58.2,50.0,91,53,24,30.12,29.99,17,2,22,0.00
2012-9-14,85.7,77.7,71.0,50.0,48.4,45.0,46,36,28,30.18,30.08,17,7,25,0.00
2012-9-15,90.4,77.7,62.4,48.0,41.2,35.0,52,29,14,30.18,30.06,21,4,21,0.00
2012-9-16,95.7,76.4,54.7,50.0,43.0,40.0,68,35,15,30.15,30.02,10,2,12,0.00
2012-9-17,92.5,76.4,56.8,54.0,48.8,43.0,67,40,21,30.11,29.96,10,2,14,0.00
2012-9-18,98.0,79.0,60.3,58.0,50.0,36.0,76,41,17,30.10,29.97,6,1,9,0.00
2012-9-19,101.0,82.7,60.2,50.0,37.2,21.0,59,25,6,30.08,29.95,10,1,11,0.00
2012-9-20,100.7,82.6,70.4,49.0,39.6,31.0,39,24,9,30.06,29.93,5,1,13,0.00
2012-9-21,101.9,84.0,66.0,49.0,39.8,32.0,52,24,9,30.03,29.90,6,2,13,0.00
2012-9-22,104.6,82.8,67.3,47.0,39.7,25.0,42,25,6,30.05,29.94,7,1,16,0.00
2012-9-23,102.1,84.5,64.5,49.0,38.3,28.0,47,23,8,30.08,29.97,7,1,14,0.00
2012-9-24,98.1,81.4,62.2,49.0,41.8,36.0,51,27,12,30.08,29.92,8,2,18,0.00
2012-9-25,94.9,80.2,62.2,49.0,44.5,41.0,51,30,18,30.00,29.85,10,2,13,0.00
2012-9-26,94.0,78.2,64.7,54.0,46.0,37.0,67,35,14,29.97,29.87,6,1,11,0.00
2012-9-27,93.8,78.7,60.8,50.0,44.2,39.0,56,32,15,30.05,29.93,6,1,9,0.00
2012-9-28,89.2,77.5,68.7,54.0,48.7,45.0,54,38,22,30.03,29.92,12,3,14,0.00
2012-9-29,94.8,80.6,67.8,54.0,47.7,41.0,50,33,20,30.09,29.95,8,2,13,0.00
2012-9-30,97.6,80.5,58.2,50.0,39.9,27.0,64,29,8,30.07,29.93,9,2,16,0.00
2012-10-1,100.5,80.6,58.0,40.0,33.0,26.0,44,21,7,30.03,29.91,6,1,9,0.00
2012-10-2,98.9,79.4,60.6,41.0,33.1,27.0,40,21,8,30.02,29.90,7,1,14,0.00
2012-10-3,97.9,79.1,59.6,40.0,32.5,26.0,38,21,8,30.10,29.97,10,1,12,0.00
2012-10-4,95.3,78.7,58.1,43.0,37.0,33.0,45,24,12,30.16,30.05,8,1,13,0.00
2012-10-5,92.9,74.2,54.6,46.0,34.7,27.0,57,28,10,30.12,29.96,6,1,11,0.00
2012-10-6,90.4,73.1,56.1,41.0,32.5,26.0,49,25,10,30.03,29.89,4,1,14,0.00
2012-10-7,91.5,74.0,58.9,44.0,36.8,33.0,49,28,13,30.00,29.90,6,1,8,0.00
2012-10-8,91.8,73.8,55.3,42.0,36.7,32.0,52,29,12,30.04,29.92,5,1,9,0.00
2012-10-9,92.2,74.5,57.6,46.0,34.7,24.0,54,27,9,30.05,29.91,7,1,10,0.00
2012-10-10,90.0,73.5,54.8,45.0,38.8,33.0,56,31,14,30.06,29.89,9,1,11,0.00
2012-10-11,82.5,71.5,59.1,59.0,47.8,38.0,62,44,27,29.99,29.88,3,1,7,0.03
2012-10-12,74.6,65.1,54.3,54.0,43.1,38.0,67,47,29,30.11,29.94,8,2,14,0.00
2012-10-13,78.8,61.8,43.9,40.0,37.0,33.0,74,43,22,30.18,30.04,8,1,9,0.00
2012-10-14,90.2,71.6,45.2,39.0,31.7,25.0,66,30,10,30.13,29.98,9,3,13,0.00
2012-10-15,93.1,76.2,58.4,31.0,23.9,12.0,31,16,5,30.04,29.90,11,2,13,0.00
2012-10-16,90.1,68.0,50.2,31.0,26.4,20.0,42,24,8,29.98,29.84,6,1,9,0.00
2012-10-17,87.8,71.5,53.6,40.3,35.2,26.6,48,28,14,29.92,29.79,6,1,10,0.00
2012-10-18,87.6,73.2,59.7,60.6,53.3,36.9,86,52,31,29.98,29.68,9,2,11,0.00
2012-10-19,91.9,73.2,54.3,50.9,41.7,28.0,72,38,11,30.04,29.86,7,1,8,0.00
2012-10-20,89.2,72.5,54.3,45.3,40.8,37.6,55,34,18,29.97,29.84,8,1,12,0.00
2012-10-21,86.2,69.8,54.3,48.0,41.1,35.6,68,39,18,29.97,29.86,10,1,13,0.00
2012-10-22,85.5,67.4,49.3,45.1,38.9,33.4,69,39,16,30.02,29.92,8,1,10,0.00
2012-10-23,85.6,69.0,49.5,46.0,41.6,38.1,72,41,19,29.99,29.88,9,1,10,0.00
2012-10-24,82.6,67.7,53.1,45.3,38.6,25.5,65,37,19,30.02,29.90,12,2,17,0.00
2012-10-25,81.7,61.6,43.3,30.6,23.1,11.8,53,26,8,30.09,29.96,6,2,10,0.00
2012-10-26,84.7,63.4,41.7,24.1,18.9,15.4,39,20,8,30.09,29.93,6,2,11,0.00
2012-10-27,87.3,70.9,54.1,30.6,27.1,20.5,34,20,10,30.02,29.91,15,4,22,0.00
2012-10-28,90.0,67.6,46.9,34.3,29.2,24.8,48,27,10,30.11,29.98,8,2,10,0.00
2012-10-29,89.8,68.3,49.3,35.4,30.7,23.2,51,28,9,30.18,30.05,9,2,13,0.00
2012-10-30,88.9,66.9,47.5,36.1,28.8,12.9,53,28,6,30.15,30.01,6,1,11,0.00
2012-10-31,88.3,66.4,46.2,32.5,25.5,11.7,51,26,6,30.11,29.97,6,1,9,0.00
2012-11-1,88.0,66.6,46.2,30.4,25.7,20.8,43,24,9,30.07,29.93,5,1,21,0.00
2012-11-2,83.7,64.4,47.1,35.6,31.2,25.5,46,31,16,30.04,29.92,7,1,11,0.00
2012-11-3,82.9,65.1,48.0,41.0,35.4,32.2,62,36,18,30.11,30.01,9,1,11,0.00
2012-11-4,86.4,65.9,47.5,38.1,32.9,28.2,58,33,14,30.17,30.07,9,2,12,0.00
2012-11-5,90.0,66.2,45.7,32.4,26.6,21.4,52,26,9,30.19,30.06,6,1,9,0.00
2012-11-6,91.0,66.8,45.0,29.1,23.5,16.5,45,23,7,30.19,30.06,7,1,10,0.00
2012-11-7,90.7,68.1,48.7,29.8,26.3,21.6,40,23,9,30.14,29.96,7,1,12,0.00
2012-11-8,84.4,68.9,57.0,44.6,32.9,25.2,49,29,12,30.04,29.92,10,2,18,0.00
2012-11-9,76.6,66.4,57.7,57.4,50.1,42.1,94,58,37,30.01,29.81,16,3,21,0.18
2012-11-10,60.6,53.0,45.9,49.8,34.8,23.5,90,53,26,30.08,29.84,12,4,18,0.02
2012-11-11,60.6,46.3,31.3,27.7,23.1,16.7,80,44,19,30.30,30.08,6,1,10,0.00
2012-11-12,68.4,56.1,34.3,22.8,12.5,4.1,61,22,9,30.29,30.11,16,5,23,0.00
2012-11-13,76.6,54.9,33.6,21.2,14.8,0.3,57,26,5,30.20,30.06,14,2,18,0.00
2012-11-14,83.7,60.2,40.1,20.3,12.1,-6.0,40,20,3,30.17,30.04,8,1,11,0.00
2012-11-15,79.2,59.3,39.6,30.6,23.4,18.0,46,27,13,30.17,30.07,4,1,5,0.00
2012-11-16,79.9,60.2,48.0,32.5,24.9,13.5,49,29,9,30.17,30.09,6,1,9,0.00
2012-11-17,76.8,62.5,46.8,46.6,35.2,24.6,58,37,22,30.16,30.06,5,1,7,0.00
2012-11-18,76.8,63.7,52.0,49.6,44.7,40.3,79,52,28,30.19,30.09,7,1,8,0.00
2012-11-19,76.6,59.8,44.4,45.9,40.8,36.0,87,53,28,30.26,30.15,7,1,8,0.00
2012-11-20,80.8,63.1,42.6,41.5,35.6,32.0,79,41,18,30.20,30.04,11,2,16,0.00
2012-11-21,80.4,63.2,49.3,40.8,36.3,32.2,61,39,21,30.11,30.01,5,1,8,0.00
2012-11-22,81.9,60.0,41.7,36.7,31.4,27.3,67,38,14,30.19,30.06,5,1,8,0.00
2012-11-23,84.4,65.2,43.5,33.3,30.1,24.8,59,31,13,30.24,30.14,13,4,16,0.00
2012-11-24,84.9,70.9,54.0,34.0,31.5,29.5,41,24,14,30.19,30.01,15,4,18,0.00
2012-11-25,82.0,61.3,44.2,37.4,27.4,11.3,62,33,7,30.04,29.89,9,1,12,0.00
2012-11-26,79.2,58.1,40.3,27.7,23.6,19.8,47,29,11,30.17,29.99,5,1,8,0.00
2012-11-27,82.9,62.2,41.7,30.2,27.0,23.9,53,30,12,30.23,30.09,6,1,12,0.00
2012-11-28,78.6,60.2,44.8,36.9,31.7,26.4,54,36,19,30.23,30.11,7,1,9,0.00
2012-11-29,75.4,56.9,40.3,37.0,33.0,28.6,74,43,22,30.24,30.14,7,1,10,0.00
2012-11-30,77.5,56.7,39.9,39.6,34.7,28.9,73,47,22,30.21,30.07,6,1,7,0.00
2012-12-1,77.4,55.8,39.2,39.2,33.4,26.4,79,48,16,30.17,30.06,5,1,7,0.00
2012-12-2,78.4,56.6,38.7,33.4,28.7,19.4,65,39,11,30.15,30.04,7,1,9,0.00
2012-12-3,74.5,56.2,41.9,37.6,33.2,30.2,65,44,23,30.20,30.09,7,1,10,0.00
2012-12-4,78.8,58.0,40.3,40.8,34.5,27.1,78,46,15,30.28,30.15,13,2,15,0.00
2012-12-5,82.8,60.9,43.9,35.2,30.3,25.7,60,35,13,30.19,30.01,5,1,8,0.00
2012-12-6,79.0,58.1,42.3,33.3,30.0,26.8,58,37,15,30.04,29.86,7,1,11,0.00
2012-12-7,73.9,56.2,41.2,37.0,31.8,28.6,64,42,23,29.99,29.90,8,1,11,0.00
2012-12-8,71.8,53.3,38.5,38.3,32.2,27.3,80,49,21,30.01,29.91,8,1,10,0.00
2012-12-9,68.5,52.4,36.3,32.9,25.5,18.1,74,40,15,30.11,29.98,12,2,16,0.00
2012-12-10,63.1,45.5,31.5,21.0,14.7,6.1,57,32,14,30.15,30.02,6,1,10,0.00
2012-12-11,67.5,44.3,27.5,14.2,9.7,5.7,43,27,11,30.11,29.99,7,1,8,0.00
2012-12-12,72.1,50.4,30.4,26.4,17.9,9.1,43,29,14,30.08,29.95,5,1,8,0.00
2012-12-13,71.4,56.5,41.2,50.9,33.4,21.7,94,46,21,30.00,29.75,10,2,16,0.46
2012-12-14,54.0,46.4,40.6,50.7,42.3,38.8,95,86,68,30.08,29.75,11,2,18,0.76
2012-12-15,54.1,48.6,45.3,45.5,42.7,37.9,90,80,62,30.09,29.98,8,2,11,0.09
2012-12-16,55.2,46.7,35.6,45.7,39.4,31.3,97,79,42,30.19,30.03,13,2,13,0.10
2012-12-17,62.1,43.9,31.6,41.0,35.9,30.6,98,77,38,30.21,30.02,6,1,8,0.00
2012-12-18,66.4,50.4,34.3,45.1,39.6,33.1,98,71,36,30.01,29.78,7,1,13,0.00
2012-12-19,55.8,44.0,31.8,45.5,33.4,27.5,92,68,41,30.32,29.78,16,4,21,0.14
2012-12-20,63.9,47.5,30.0,31.3,19.6,4.1,93,46,11,30.32,30.14,16,5,25,0.00
2012-12-21,67.8,54.9,37.6,35.1,17.8,4.8,69,27,12,30.16,30.05,13,4,18,0.00
2012-12-22,71.2,54.4,43.3,40.8,35.0,26.8,82,51,22,30.16,30.07,6,1,8,0.00
2012-12-23,68.5,50.0,37.2,41.7,36.4,29.1,94,65,23,30.19,30.03,5,1,7,0.00
2012-12-24,62.1,51.0,39.0,41.5,37.3,34.7,88,62,38,30.09,29.90,13,2,17,0.00
2012-12-25,54.9,47.3,38.1,41.4,35.0,29.3,94,64,40,30.13,30.01,5,1,7,0.00
2012-12-26,64.6,47.0,34.2,34.0,25.8,9.9,85,50,12,30.03,29.83,7,1,9,0.00
2012-12-27,54.3,40.3,29.3,37.0,30.3,26.1,94,71,34,30.06,29.86,13,2,18,0.01
2012-12-28,55.9,40.3,27.9,34.7,28.6,22.6,98,67,34,30.17,30.06,7,1,8,0.00
2012-12-29,66.2,48.4,32.5,28.9,23.4,17.2,73,41,17,30.12,29.95,9,2,14,0.00
2012-12-30,59.7,44.0,33.6,38.5,29.8,21.6,95,63,23,29.99,29.81,12,2,18,0.30
2012-12-31,48.6,39.3,29.7,40.1,34.6,27.9,96,84,50,30.21,29.99,12,1,17,0.23
2013-1-1,53.6,38.5,27.0,31.8,27.4,21.6,95,69,29,30.24,30.09,10,2,11,0.00